createdAt,value
2023-04-25T00:01:06.099Z,2.43
2023-04-25T00:03:34.251Z,1.87
2023-04-25T00:06:04.258Z,2.23
2023-04-25T00:08:31.635Z,2.00
2023-04-25T00:10:59.510Z,2.13
2023-04-25T00:13:27.742Z,2.20
2023-04-25T00:15:54.831Z,2.30
2023-04-25T00:18:21.887Z,2.10
2023-04-25T00:20:49.153Z,2.10
2023-04-25T00:23:19.422Z,2.00
2023-04-25T00:25:47.171Z,2.17
2023-04-25T00:28:14.801Z,2.10
2023-04-25T00:30:43.053Z,2.30
2023-04-25T00:33:11.059Z,2.27
2023-04-25T00:35:39.377Z,2.40
2023-04-25T00:38:06.493Z,2.10
2023-04-25T00:40:33.761Z,1.93
2023-04-25T00:43:01.310Z,2.20
2023-04-25T00:45:32.070Z,2.20
2023-04-25T00:47:59.172Z,2.10
2023-04-25T00:50:26.370Z,1.83
2023-04-25T00:52:53.509Z,1.93
2023-04-25T00:55:21.259Z,1.80
2023-04-25T00:57:48.823Z,2.10
2023-04-25T01:00:16.399Z,1.97
2023-04-25T01:02:46.019Z,2.17
2023-04-25T01:05:13.432Z,2.00
2023-04-25T01:07:40.641Z,1.83
2023-04-25T01:10:08.743Z,2.20
2023-04-25T01:12:36.313Z,1.93
2023-04-25T01:15:03.965Z,1.97
2023-04-25T01:17:32.529Z,2.00
2023-04-25T01:19:59.848Z,2.10
2023-04-25T01:22:27.023Z,1.57
2023-04-25T01:24:54.659Z,2.23
2023-04-25T01:27:23.851Z,1.90
2023-04-25T01:29:51.755Z,1.90
2023-04-25T01:32:19.507Z,2.00
2023-04-25T01:34:46.963Z,2.00
2023-04-25T01:37:14.166Z,2.40
2023-04-25T01:39:41.794Z,2.20
2023-04-25T01:42:08.910Z,2.00
2023-04-25T01:44:36.070Z,2.37
2023-04-25T01:47:03.323Z,2.47
2023-04-25T01:49:31.985Z,2.13
2023-04-25T01:51:59.790Z,2.20
2023-04-25T01:54:27.015Z,2.33
2023-04-25T01:56:54.341Z,2.07
2023-04-25T01:59:22.995Z,2.10
2023-04-25T02:02:12.652Z,2.40
2023-04-25T02:04:40.984Z,2.40
2023-04-25T02:07:09.128Z,2.00
2023-04-25T02:09:51.803Z,2.30
2023-04-25T02:12:20.454Z,2.40
2023-04-25T02:15:06.993Z,2.70
2023-04-25T02:17:41.646Z,2.50
2023-04-25T02:20:09.219Z,2.43
2023-04-25T02:22:36.536Z,2.40
2023-04-25T02:25:06.775Z,2.40
2023-04-25T02:27:33.871Z,2.20
2023-04-25T02:30:01.155Z,2.23
2023-04-25T02:32:28.255Z,2.40
2023-04-25T02:34:55.471Z,2.30
2023-04-25T02:37:22.632Z,2.77
2023-04-25T02:39:49.761Z,2.47
2023-04-25T02:42:16.859Z,2.40
2023-04-25T02:44:43.996Z,2.63
2023-04-25T02:47:11.248Z,2.53
2023-04-25T02:49:38.436Z,2.87
2023-04-25T02:52:05.669Z,2.47
2023-04-25T02:54:33.233Z,2.73
2023-04-25T02:57:02.025Z,2.50
2023-04-25T02:59:33.764Z,2.70
2023-04-25T03:02:01.066Z,2.40
2023-04-25T03:04:28.547Z,2.77
2023-04-25T03:06:56.175Z,2.43
2023-04-25T03:09:23.317Z,2.70
2023-04-25T03:11:50.669Z,2.20
2023-04-25T03:14:20.188Z,2.70
2023-04-25T03:16:47.357Z,2.50
2023-04-25T03:19:17.023Z,2.70
2023-04-25T03:21:45.266Z,2.90
2023-04-25T03:24:13.544Z,2.90
2023-04-25T03:26:40.682Z,2.40
2023-04-25T03:29:09.189Z,2.90
2023-04-25T03:31:37.236Z,2.27
2023-04-25T03:34:04.363Z,2.70
2023-04-25T03:36:32.057Z,2.50
2023-04-25T03:38:59.220Z,2.30
2023-04-25T03:41:27.616Z,2.80
2023-04-25T03:44:02.956Z,2.63
2023-04-25T03:46:30.212Z,2.50
2023-04-25T03:48:57.501Z,2.70
2023-04-25T03:51:41.921Z,2.80
2023-04-25T03:54:09.116Z,2.50
2023-04-25T03:56:55.984Z,2.40
2023-04-25T03:59:27.225Z,2.20
2023-04-25T04:01:54.399Z,2.43
2023-04-25T04:04:22.269Z,2.27
2023-04-25T04:06:49.738Z,2.30
2023-04-25T04:09:22.797Z,2.50
2023-04-25T04:11:50.161Z,2.30
2023-04-25T04:14:17.800Z,2.97
2023-04-25T04:16:47.101Z,2.40
2023-04-25T04:19:14.286Z,2.70
2023-04-25T04:21:46.327Z,2.13
2023-04-25T04:24:13.565Z,2.40
2023-04-25T04:26:51.740Z,2.20
2023-04-25T04:29:37.726Z,2.20
2023-04-25T04:32:31.610Z,2.00
2023-04-25T04:34:59.187Z,2.40
2023-04-25T04:37:26.474Z,2.50
2023-04-25T04:39:53.584Z,2.60
2023-04-25T04:42:39.234Z,2.60
2023-04-25T04:45:25.033Z,2.53
2023-04-25T04:48:13.005Z,2.43
2023-04-25T04:50:56.921Z,2.27
2023-04-25T04:53:53.347Z,2.90
2023-04-25T04:56:38.944Z,3.30
2023-04-25T04:59:28.909Z,3.30
2023-04-25T05:02:29.190Z,3.30
2023-04-25T05:05:09.492Z,3.00
2023-04-25T05:07:36.611Z,3.30
2023-04-25T05:10:23.217Z,3.40
2023-04-25T05:13:16.746Z,3.30
2023-04-25T05:16:02.332Z,3.17
2023-04-25T05:18:55.535Z,3.53
2023-04-25T05:21:44.222Z,3.47
2023-04-25T05:24:40.580Z,3.60
2023-04-25T05:27:28.172Z,3.60
2023-04-25T05:30:27.247Z,3.50
2023-04-25T05:33:11.116Z,3.00
2023-04-25T05:35:39.260Z,3.37
2023-04-25T05:38:06.537Z,3.23
2023-04-25T05:40:59.498Z,3.03
2023-04-25T05:43:48.417Z,2.80
2023-04-25T05:46:25.729Z,3.20
2023-04-25T05:49:08.598Z,3.03
2023-04-25T05:51:42.348Z,2.97
2023-04-25T05:54:41.658Z,3.20
2023-04-25T05:57:08.872Z,3.40
2023-04-25T05:59:36.924Z,3.03
2023-04-25T06:02:04.318Z,2.97
2023-04-25T06:04:35.737Z,3.10
2023-04-25T06:07:03.059Z,3.33
2023-04-25T06:09:30.207Z,3.40
2023-04-25T06:11:57.323Z,2.97
2023-04-25T06:14:24.868Z,2.77
2023-04-25T06:16:52.527Z,3.20
2023-04-25T06:19:19.622Z,2.40
2023-04-25T06:21:46.728Z,3.03
2023-04-25T06:24:13.808Z,2.80
2023-04-25T06:26:41.034Z,3.00
2023-04-25T06:29:08.142Z,3.03
2023-04-25T06:31:35.589Z,3.03
2023-04-25T06:34:03.506Z,2.50
2023-04-25T06:36:33.601Z,2.73
2023-04-25T06:39:06.623Z,2.97
2023-04-25T06:41:34.136Z,2.40
2023-04-25T06:44:06.279Z,2.37
2023-04-25T06:46:39.135Z,2.50
2023-04-25T06:49:06.487Z,2.70
2023-04-25T06:51:34.316Z,2.50
2023-04-25T06:54:01.601Z,2.50
2023-04-25T06:56:40.057Z,2.37
2023-04-25T06:59:16.322Z,1.73
2023-04-25T07:01:46.551Z,1.80
2023-04-25T07:04:20.969Z,1.70
2023-04-25T07:06:56.106Z,1.90
2023-04-25T07:09:38.867Z,1.83
2023-04-25T07:12:06.367Z,1.80
2023-04-25T07:14:34.605Z,1.80
2023-04-25T07:17:02.257Z,1.87
2023-04-25T07:19:31.905Z,1.40
2023-04-25T07:22:01.919Z,1.40
2023-04-25T07:24:29.615Z,1.60
2023-04-25T07:26:58.967Z,1.40
2023-04-25T07:29:32.890Z,1.23
2023-04-25T07:32:01.245Z,1.40
2023-04-25T07:34:28.582Z,1.20
2023-04-25T07:36:55.662Z,1.30
2023-04-25T07:39:24.882Z,1.20
2023-04-25T07:41:54.484Z,1.00
2023-04-25T07:44:26.945Z,1.10
2023-04-25T07:46:54.212Z,1.50
2023-04-25T07:49:21.568Z,1.37
2023-04-25T07:51:50.008Z,1.50
2023-04-25T07:54:19.728Z,1.13
2023-04-25T07:57:00.877Z,1.50
2023-04-25T07:59:30.816Z,1.33
2023-04-25T08:02:02.120Z,1.30
2023-04-25T08:04:30.025Z,1.40
2023-04-25T08:07:05.620Z,2.00
2023-04-25T08:09:40.632Z,1.70
2023-04-25T08:12:13.596Z,1.80
2023-04-25T08:14:41.334Z,2.10
2023-04-25T08:17:08.612Z,1.70
2023-04-25T08:19:40.951Z,1.63
2023-04-25T08:22:13.844Z,2.00
2023-04-25T08:25:12.747Z,1.77
2023-04-25T08:27:41.300Z,1.70
2023-04-25T08:30:09.961Z,1.80
2023-04-25T08:32:39.848Z,1.87
2023-04-25T08:35:39.308Z,2.10
2023-04-25T08:38:07.582Z,1.77
2023-04-25T08:40:39.058Z,2.13
2023-04-25T08:43:13.713Z,2.00
2023-04-25T08:45:42.675Z,2.17
2023-04-25T08:48:17.232Z,2.00
2023-04-25T08:51:04.063Z,2.03
2023-04-25T08:53:34.014Z,1.97
2023-04-25T08:56:04.702Z,2.20
2023-04-25T08:58:36.902Z,2.03
2023-04-25T09:01:05.472Z,2.13
2023-04-25T09:03:39.450Z,2.00
2023-04-25T09:06:06.800Z,2.37
2023-04-25T09:08:35.078Z,2.30
2023-04-25T09:11:02.591Z,2.40
2023-04-25T09:13:29.967Z,2.20
2023-04-25T09:16:18.518Z,2.00
2023-04-25T09:19:04.018Z,2.37
2023-04-25T09:21:36.012Z,2.33
2023-04-25T09:24:03.831Z,2.53
2023-04-25T09:26:30.963Z,2.30
2023-04-25T09:29:09.060Z,2.53
2023-04-25T09:31:40.118Z,2.70
2023-04-25T09:34:13.043Z,2.53
2023-04-25T09:36:44.911Z,2.80
2023-04-25T09:39:23.295Z,2.57
2023-04-25T09:41:58.793Z,3.23
2023-04-25T09:44:26.566Z,2.90
2023-04-25T09:46:55.606Z,3.03
2023-04-25T09:49:27.842Z,3.00
2023-04-25T09:52:04.924Z,3.30
2023-04-25T09:54:47.406Z,2.70
2023-04-25T09:57:23.231Z,2.50
2023-04-25T09:59:55.947Z,2.80
2023-04-25T10:02:28.679Z,2.70
2023-04-25T10:05:08.898Z,2.17
2023-04-25T10:07:41.151Z,3.03
2023-04-25T10:10:16.900Z,2.70
2023-04-25T10:12:45.345Z,2.80
2023-04-25T10:15:13.452Z,2.80
2023-04-25T10:17:41.397Z,2.87
2023-04-25T10:20:12.109Z,3.10
2023-04-25T10:22:48.539Z,2.83
2023-04-25T10:25:16.464Z,2.97
2023-04-25T10:27:44.302Z,2.90
2023-04-25T10:30:16.609Z,2.90
2023-04-25T10:32:46.447Z,2.50
2023-04-25T10:35:19.291Z,2.90
2023-04-25T10:38:04.642Z,2.93
2023-04-25T10:40:32.852Z,2.77
2023-04-25T10:43:34.866Z,2.90
2023-04-25T10:46:02.068Z,2.57
2023-04-25T10:48:31.095Z,3.10
2023-04-25T10:51:11.204Z,3.43
2023-04-25T10:53:38.417Z,2.87
2023-04-25T10:56:19.319Z,3.13
2023-04-25T10:58:48.105Z,3.50
2023-04-25T11:01:21.666Z,3.33
2023-04-25T11:03:51.871Z,3.53
2023-04-25T11:06:38.267Z,3.00
2023-04-25T11:09:14.624Z,3.13
2023-04-25T11:11:41.914Z,3.00
2023-04-25T11:14:09.084Z,2.87
2023-04-25T11:16:37.497Z,2.83
2023-04-25T11:19:05.171Z,3.00
2023-04-25T11:21:32.992Z,3.23
2023-04-25T11:24:01.580Z,2.93
2023-04-25T11:26:28.954Z,3.10
2023-04-25T11:29:01.446Z,2.77
2023-04-25T11:31:28.634Z,2.50
2023-04-25T11:33:58.349Z,2.50
2023-04-25T11:36:27.068Z,2.50
2023-04-25T11:38:54.956Z,2.33
2023-04-25T11:41:23.361Z,2.50
2023-04-25T11:43:52.959Z,2.40
2023-04-25T11:46:21.320Z,1.77
2023-04-25T11:48:49.278Z,2.33
2023-04-25T11:51:16.517Z,2.40
2023-04-25T11:53:45.944Z,2.10
2023-04-25T11:56:13.524Z,2.10
2023-04-25T11:59:03.991Z,2.20
2023-04-25T12:01:35.163Z,1.60
2023-04-25T12:04:16.637Z,1.70
2023-04-25T12:06:45.417Z,1.70
2023-04-25T12:09:14.536Z,1.70
2023-04-25T12:11:49.217Z,1.67
2023-04-25T12:14:29.944Z,1.70
2023-04-25T12:16:59.397Z,1.73
2023-04-25T12:19:27.067Z,1.57
2023-04-25T12:21:58.725Z,1.63
2023-04-25T12:24:28.578Z,1.80
2023-04-25T12:27:04.707Z,2.00
2023-04-25T12:29:41.911Z,1.60
2023-04-25T12:32:16.491Z,1.27
2023-04-25T12:34:43.853Z,1.57
2023-04-25T12:37:11.626Z,1.50
2023-04-25T12:39:38.959Z,1.50
2023-04-25T12:42:09.250Z,1.47
2023-04-25T12:44:37.406Z,1.50
2023-04-25T12:47:05.273Z,1.40
2023-04-25T12:49:32.910Z,1.40
2023-04-25T12:52:00.438Z,1.20
2023-04-25T12:54:27.784Z,1.30
2023-04-25T12:56:55.946Z,1.10
2023-04-25T12:59:23.275Z,1.10
2023-04-25T13:01:50.630Z,1.00
2023-04-25T13:04:18.824Z,1.10
2023-04-25T13:06:46.392Z,0.97
2023-04-25T13:09:13.869Z,1.00
2023-04-25T13:11:42.488Z,1.00
2023-04-25T13:14:09.608Z,1.10
2023-04-25T13:16:37.167Z,0.90
2023-04-25T13:19:04.346Z,1.03
2023-04-25T13:21:33.586Z,1.20
2023-04-25T13:24:00.888Z,0.90
2023-04-25T13:26:28.101Z,1.30
2023-04-25T13:28:55.233Z,0.90
2023-04-25T13:31:22.476Z,1.00
2023-04-25T13:33:50.075Z,1.10
2023-04-25T13:36:17.518Z,0.97
2023-04-25T13:38:46.067Z,1.20
2023-04-25T13:41:18.745Z,1.00
2023-04-25T13:43:50.018Z,1.00
2023-04-25T13:46:35.244Z,1.30
2023-04-25T13:49:12.406Z,1.03
2023-04-25T13:51:41.046Z,1.30
2023-04-25T13:54:08.703Z,1.23
2023-04-25T13:56:36.179Z,0.90
2023-04-25T13:59:03.345Z,1.20
2023-04-25T14:01:32.310Z,1.20
2023-04-25T14:03:59.492Z,1.60
2023-04-25T14:06:27.033Z,1.20
2023-04-25T14:08:54.995Z,1.20
2023-04-25T14:11:22.251Z,1.40
2023-04-25T14:13:50.604Z,1.17
2023-04-25T14:16:18.333Z,0.93
2023-04-25T14:18:45.551Z,1.20
2023-04-25T14:21:12.669Z,1.30
2023-04-25T14:23:39.758Z,1.20
2023-04-25T14:26:06.934Z,1.40
2023-04-25T14:28:34.069Z,1.20
2023-04-25T14:31:01.874Z,1.27
2023-04-25T14:33:29.359Z,1.30
2023-04-25T14:35:57.031Z,1.37
2023-04-25T14:38:26.076Z,1.30
2023-04-25T14:40:55.188Z,1.27
2023-04-25T14:43:22.477Z,1.60
2023-04-25T14:45:49.797Z,1.30
2023-04-25T14:48:19.180Z,1.23
2023-04-25T14:50:47.055Z,1.30
2023-04-25T14:53:14.178Z,1.33
2023-04-25T14:55:42.367Z,1.30
2023-04-25T14:58:10.683Z,1.37
2023-04-25T15:00:38.412Z,1.30
2023-04-25T15:03:05.916Z,1.30
2023-04-25T15:05:33.173Z,1.40
2023-04-25T15:08:00.269Z,1.33
2023-04-25T15:10:27.527Z,1.43
2023-04-25T15:12:54.748Z,1.30
2023-04-25T15:15:26.579Z,1.20
2023-04-25T15:17:59.360Z,1.30
2023-04-25T15:20:27.895Z,1.40
2023-04-25T15:22:55.598Z,1.50
2023-04-25T15:25:22.950Z,1.43
2023-04-25T15:27:52.704Z,1.50
2023-04-25T15:30:20.802Z,1.53
2023-04-25T15:32:48.858Z,1.50
2023-04-25T15:35:16.514Z,1.40
2023-04-25T15:37:44.169Z,1.30
2023-04-25T15:40:16.510Z,1.60
2023-04-25T15:42:48.269Z,1.60
2023-04-25T15:45:18.016Z,1.47
2023-04-25T15:47:45.575Z,1.30
2023-04-25T15:50:13.512Z,1.40
2023-04-25T15:52:41.151Z,1.47
2023-04-25T15:55:09.338Z,1.47
2023-04-25T15:57:37.217Z,1.50
2023-04-25T16:00:11.030Z,1.40
2023-04-25T16:02:42.592Z,1.47
2023-04-25T16:05:11.602Z,1.40
2023-04-25T16:07:40.396Z,1.53
2023-04-25T16:10:09.018Z,1.50
2023-04-25T16:12:37.162Z,1.60
2023-04-25T16:15:04.896Z,1.33
2023-04-25T16:17:33.464Z,1.57
2023-04-25T16:20:04.572Z,1.30
2023-04-25T16:22:32.453Z,1.30
2023-04-25T16:24:59.538Z,1.30
2023-04-25T16:27:26.841Z,1.60
2023-04-25T16:29:53.933Z,1.40
2023-04-25T16:32:21.033Z,1.40
2023-04-25T16:34:48.152Z,1.40
2023-04-25T16:37:15.470Z,1.40
2023-04-25T16:39:42.585Z,1.30
2023-04-25T16:42:09.786Z,1.33
2023-04-25T16:44:36.835Z,1.30
2023-04-25T16:47:06.370Z,1.40
2023-04-25T16:49:33.817Z,1.43
2023-04-25T16:52:01.012Z,1.50
2023-04-25T16:54:28.145Z,1.50
2023-04-25T16:56:55.665Z,1.60
2023-04-25T16:59:22.869Z,1.70
2023-04-25T17:01:50.097Z,1.47
2023-04-25T17:04:17.402Z,1.47
2023-04-25T17:06:44.821Z,1.60
2023-04-25T17:09:12.072Z,1.33
2023-04-25T17:11:39.237Z,1.77
2023-04-25T17:14:06.395Z,1.50
2023-04-25T17:16:38.328Z,1.40
2023-04-25T17:19:06.004Z,1.67
2023-04-25T17:21:33.538Z,1.50
2023-04-25T17:24:00.816Z,1.60
2023-04-25T17:26:28.062Z,1.50
2023-04-25T17:28:55.411Z,1.70
2023-04-25T17:31:23.985Z,1.60
2023-04-25T17:33:51.251Z,1.67
2023-04-25T17:36:18.692Z,1.70
2023-04-25T17:38:45.898Z,1.57
2023-04-25T17:41:15.024Z,1.67
2023-04-25T17:43:44.246Z,1.57
2023-04-25T17:46:11.646Z,1.53
2023-04-25T17:48:38.796Z,1.97
2023-04-25T17:51:07.539Z,1.63
2023-04-25T17:53:35.580Z,1.63
2023-04-25T17:56:05.313Z,1.80
2023-04-25T17:58:34.445Z,1.80
2023-04-25T18:01:01.779Z,1.43
2023-04-25T18:03:29.140Z,1.50
2023-04-25T18:05:56.302Z,1.70
2023-04-25T18:08:23.460Z,1.67
2023-04-25T18:10:51.300Z,1.60
2023-04-25T18:13:21.682Z,1.50
2023-04-25T18:15:48.803Z,1.30
2023-04-25T18:18:20.158Z,1.40
2023-04-25T18:20:47.593Z,1.40
2023-04-25T18:23:14.742Z,1.40
2023-04-25T18:25:41.955Z,1.73
2023-04-25T18:28:11.483Z,1.50
2023-04-25T18:30:38.637Z,1.80
2023-04-25T18:33:05.835Z,1.63
2023-04-25T18:35:33.218Z,1.60
2023-04-25T18:38:00.378Z,1.53
2023-04-25T18:40:27.583Z,1.70
2023-04-25T18:42:54.650Z,1.70
2023-04-25T18:45:21.997Z,1.80
2023-04-25T18:47:49.168Z,1.77
2023-04-25T18:50:20.890Z,1.73
2023-04-25T18:52:48.017Z,1.80
2023-04-25T18:55:15.406Z,2.03
2023-04-25T18:57:43.056Z,1.70
2023-04-25T19:00:11.301Z,1.70
2023-04-25T19:02:38.783Z,1.80
2023-04-25T19:05:06.391Z,1.90
2023-04-25T19:07:33.606Z,1.77
2023-04-25T19:10:00.805Z,2.10
2023-04-25T19:12:27.950Z,1.70
2023-04-25T19:14:55.585Z,1.70
2023-04-25T19:17:23.505Z,1.80
2023-04-25T19:19:50.837Z,1.83
2023-04-25T19:22:18.005Z,1.60
2023-04-25T19:24:47.217Z,1.97
2023-04-25T19:27:16.322Z,1.70
2023-04-25T19:29:48.569Z,1.90
2023-04-25T19:32:15.886Z,1.63
2023-04-25T19:34:42.934Z,1.60
2023-04-25T19:37:10.103Z,1.80
2023-04-25T19:39:37.139Z,1.70
2023-04-25T19:42:04.482Z,1.80
2023-04-25T19:44:31.562Z,1.73
2023-04-25T19:46:59.888Z,1.70
2023-04-25T19:49:27.227Z,1.80
2023-04-25T19:51:54.400Z,1.70
2023-04-25T19:54:23.319Z,1.80
2023-04-25T19:56:50.619Z,1.63
2023-04-25T19:59:17.653Z,2.00
2023-04-25T20:01:45.014Z,1.70
2023-04-25T20:04:12.779Z,1.80
2023-04-25T20:06:39.915Z,1.83
2023-04-25T20:09:09.504Z,1.50
2023-04-25T20:11:36.767Z,1.80
2023-04-25T20:14:05.670Z,1.43
2023-04-25T20:16:32.780Z,1.57
2023-04-25T20:18:59.985Z,1.60
2023-04-25T20:21:28.279Z,1.70
2023-04-25T20:23:55.546Z,1.77
2023-04-25T20:26:22.933Z,1.70
2023-04-25T20:28:50.646Z,1.80
2023-04-25T20:31:18.127Z,1.63
2023-04-25T20:33:46.276Z,1.90
2023-04-25T20:36:15.634Z,1.80
2023-04-25T20:38:42.795Z,1.70
2023-04-25T20:41:10.035Z,1.73
2023-04-25T20:43:38.251Z,2.20
2023-04-25T20:46:05.589Z,1.87
2023-04-25T20:48:33.020Z,1.67
2023-04-25T20:51:00.696Z,1.83
2023-04-25T20:53:27.898Z,1.63
2023-04-25T20:55:55.043Z,1.67
2023-04-25T20:58:22.137Z,1.63
2023-04-25T21:00:50.743Z,1.87
2023-04-25T21:03:18.030Z,2.20
2023-04-25T21:05:45.164Z,1.53
2023-04-25T21:08:12.418Z,1.90
2023-04-25T21:10:39.616Z,1.50
2023-04-25T21:13:06.764Z,1.70
2023-04-25T21:15:34.006Z,1.77
2023-04-25T21:18:02.002Z,1.90
2023-04-25T21:20:29.293Z,1.70
2023-04-25T21:22:56.425Z,1.90
2023-04-25T21:25:31.575Z,1.70
2023-04-25T21:27:59.650Z,2.00
2023-04-25T21:30:27.454Z,1.77
2023-04-25T21:32:54.906Z,1.80
2023-04-25T21:35:22.722Z,1.73
2023-04-25T21:37:50.106Z,1.63
2023-04-25T21:40:17.577Z,1.83
2023-04-25T21:42:49.971Z,1.83
2023-04-25T21:45:17.363Z,1.73
2023-04-25T21:47:46.714Z,1.93
2023-04-25T21:50:14.954Z,2.03
2023-04-25T21:52:42.227Z,1.90
2023-04-25T21:55:10.720Z,1.77
2023-04-25T21:57:37.994Z,1.70
2023-04-25T22:00:13.680Z,2.07
2023-04-25T22:02:41.108Z,2.00
2023-04-25T22:05:08.277Z,1.60
2023-04-25T22:07:35.563Z,1.57
2023-04-25T22:10:02.778Z,1.70
2023-04-25T22:12:29.977Z,1.53
2023-04-25T22:14:57.177Z,1.70
2023-04-25T22:17:27.114Z,1.70
2023-04-25T22:19:54.222Z,1.70
2023-04-25T22:22:21.678Z,1.77
2023-04-25T22:24:49.893Z,1.90
2023-04-25T22:27:17.019Z,1.83
2023-04-25T22:29:44.101Z,1.77
2023-04-25T22:32:11.163Z,1.87
2023-04-25T22:34:38.248Z,1.77
2023-04-25T22:37:05.408Z,1.90
2023-04-25T22:39:32.564Z,1.80
2023-04-25T22:41:59.634Z,1.77
2023-04-25T22:44:26.717Z,1.40
2023-04-25T22:46:54.688Z,1.80
2023-04-25T22:49:21.822Z,2.00
2023-04-25T22:51:54.095Z,2.00
2023-04-25T22:54:21.810Z,1.77
2023-04-25T22:56:49.078Z,1.70
2023-04-25T22:59:16.250Z,1.80
2023-04-25T23:01:43.823Z,1.70
2023-04-25T23:04:11.560Z,1.87
2023-04-25T23:06:40.463Z,1.83
2023-04-25T23:09:09.909Z,1.60
2023-04-25T23:11:37.320Z,1.93
2023-04-25T23:14:05.065Z,1.80
2023-04-25T23:16:32.297Z,1.83
2023-04-25T23:18:59.832Z,1.67
2023-04-25T23:21:26.980Z,1.77
2023-04-25T23:23:54.581Z,1.80
2023-04-25T23:26:22.383Z,1.70
2023-04-25T23:28:49.469Z,1.67
2023-04-25T23:31:16.709Z,1.73
2023-04-25T23:33:43.854Z,1.80
2023-04-25T23:36:19.967Z,1.80
2023-04-25T23:38:47.903Z,1.47
2023-04-25T23:41:15.060Z,1.70
2023-04-25T23:43:42.310Z,1.70
2023-04-25T23:46:09.697Z,1.60
2023-04-25T23:48:36.963Z,1.77
2023-04-25T23:51:04.042Z,1.70
2023-04-25T23:53:31.401Z,1.60
2023-04-25T23:55:58.532Z,2.03
2023-04-25T23:58:25.726Z,1.60
